createdAt,value
2022-10-28T00:01:57.902Z,101659.97
2022-10-28T00:05:00.725Z,101651.00
2022-10-28T00:08:03.233Z,101652.81
2022-10-28T00:11:11.297Z,101644.75
2022-10-28T00:14:15.074Z,101648.34
2022-10-28T00:17:17.949Z,101639.34
2022-10-28T00:20:20.588Z,101643.84
2022-10-28T00:23:23.331Z,101649.25
2022-10-28T00:26:30.650Z,101640.28
2022-10-28T00:29:34.181Z,101629.47
2022-10-28T00:32:37.230Z,101634.88
2022-10-28T00:35:39.952Z,101643.84
2022-10-28T00:38:43.814Z,101633.94
2022-10-28T00:41:55.567Z,101642.03
2022-10-28T00:45:00.273Z,101635.75
2022-10-28T00:48:03.399Z,101635.75
2022-10-28T00:51:06.301Z,101628.56
2022-10-28T00:54:09.197Z,101634.88
2022-10-28T00:57:18.789Z,101617.78
2022-10-28T01:00:21.633Z,101617.81
2022-10-28T01:03:24.146Z,101610.63
2022-10-28T01:06:27.903Z,101607.91
2022-10-28T01:09:30.835Z,101619.59
2022-10-28T01:12:49.151Z,101631.28
2022-10-28T01:16:06.039Z,101625.00
2022-10-28T01:19:11.703Z,101620.50
2022-10-28T01:22:35.652Z,101617.81
2022-10-28T01:25:59.216Z,101615.09
2022-10-28T01:29:39.081Z,101620.50
2022-10-28T01:33:00.436Z,101616.00
2022-10-28T01:36:11.786Z,101612.34
2022-10-28T01:39:26.844Z,101609.66
2022-10-28T01:42:51.245Z,101608.75
2022-10-28T01:46:08.236Z,101608.75
2022-10-28T01:49:22.154Z,101613.25
2022-10-28T01:52:27.172Z,101604.28
2022-10-28T01:55:33.979Z,101600.66
2022-10-28T01:58:38.131Z,101602.47
2022-10-28T02:01:42.033Z,101600.66
2022-10-28T02:04:44.955Z,101597.06
2022-10-28T02:07:47.863Z,101590.78
2022-10-28T02:11:11.991Z,101583.59
2022-10-28T02:14:22.483Z,101581.81
2022-10-28T02:17:49.384Z,101587.19
2022-10-28T02:21:05.766Z,101591.69
2022-10-28T02:24:19.783Z,101585.41
2022-10-28T02:27:34.853Z,101581.81
2022-10-28T02:31:08.553Z,101586.28
2022-10-28T02:34:14.543Z,101597.97
2022-10-28T02:37:44.066Z,101603.37
2022-10-28T02:40:50.432Z,101602.50
2022-10-28T02:44:00.139Z,101601.59
2022-10-28T02:47:07.879Z,101596.22
2022-10-28T02:50:13.176Z,101592.63
2022-10-28T02:53:19.860Z,101589.94
2022-10-28T02:56:22.684Z,101588.12
2022-10-28T02:59:28.344Z,101596.25
2022-10-28T03:02:31.135Z,101598.94
2022-10-28T03:05:33.562Z,101591.75
2022-10-28T03:08:36.322Z,101597.16
2022-10-28T03:11:38.798Z,101588.16
2022-10-28T03:14:42.478Z,101589.97
2022-10-28T03:17:45.006Z,101586.34
2022-10-28T03:20:47.911Z,101589.03
2022-10-28T03:23:50.359Z,101607.00
2022-10-28T03:26:54.063Z,101596.19
2022-10-28T03:29:56.515Z,101596.19
2022-10-28T03:32:59.233Z,101589.00
2022-10-28T03:36:01.702Z,101595.25
2022-10-28T03:39:04.987Z,101590.75
2022-10-28T03:42:07.474Z,101579.09
2022-10-28T03:45:10.692Z,101579.97
2022-10-28T03:48:13.202Z,101577.25
2022-10-28T03:51:15.916Z,101578.16
2022-10-28T03:54:18.433Z,101567.38
2022-10-28T03:57:21.166Z,101563.75
2022-10-28T04:00:23.695Z,101561.97
2022-10-28T04:03:26.865Z,101561.97
2022-10-28T04:06:29.340Z,101569.13
2022-10-28T04:09:32.061Z,101566.44
2022-10-28T04:12:34.537Z,101560.16
2022-10-28T04:15:37.464Z,101580.78
2022-10-28T04:18:40.000Z,101571.81
2022-10-28T04:21:42.842Z,101589.78
2022-10-28T04:24:45.400Z,101593.34
2022-10-28T04:27:48.495Z,101595.13
2022-10-28T04:30:51.003Z,101588.84
2022-10-28T04:33:53.705Z,101593.34
2022-10-28T04:36:56.170Z,101590.66
2022-10-28T04:39:59.576Z,101587.94
2022-10-28T04:43:01.988Z,101583.47
2022-10-28T04:46:06.176Z,101578.09
2022-10-28T04:49:08.753Z,101567.31
2022-10-28T04:52:14.822Z,101567.28
2022-10-28T04:55:19.057Z,101554.69
2022-10-28T04:58:21.796Z,101558.28
2022-10-28T05:01:24.338Z,101548.41
2022-10-28T05:04:27.178Z,101561.88
2022-10-28T05:07:29.656Z,101569.97
2022-10-28T05:10:32.492Z,101574.44
2022-10-28T05:13:35.018Z,101573.53
2022-10-28T05:16:37.785Z,101566.31
2022-10-28T05:19:40.544Z,101573.50
2022-10-28T05:22:51.383Z,101588.78
2022-10-28T05:25:54.001Z,101586.06
2022-10-28T05:28:56.747Z,101586.06
2022-10-28T05:31:59.741Z,101579.78
2022-10-28T05:35:03.303Z,101584.28
2022-10-28T05:38:06.303Z,101567.22
2022-10-28T05:41:09.148Z,101569.00
2022-10-28T05:44:11.739Z,101574.41
2022-10-28T05:47:14.503Z,101573.50
2022-10-28T05:50:18.550Z,101575.31
2022-10-28T05:53:21.428Z,101569.03
2022-10-28T05:56:24.045Z,101570.81
2022-10-28T05:59:27.253Z,101569.03
2022-10-28T06:02:29.942Z,101561.88
2022-10-28T06:05:33.588Z,101565.47
2022-10-28T06:08:36.460Z,101565.41
2022-10-28T06:11:37.732Z,101567.19
2022-10-28T06:14:40.245Z,101574.38
2022-10-28T06:17:46.583Z,101583.38
2022-10-28T06:20:56.612Z,101577.06
2022-10-28T06:23:59.516Z,101577.06
2022-10-28T06:27:02.223Z,101578.87
2022-10-28T06:30:06.044Z,101583.41
2022-10-28T06:33:08.666Z,101587.94
2022-10-28T06:36:11.557Z,101592.44
2022-10-28T06:39:14.170Z,101597.84
2022-10-28T06:42:17.646Z,101605.03
2022-10-28T06:45:20.135Z,101605.03
2022-10-28T06:48:24.599Z,101605.03
2022-10-28T06:51:27.132Z,101612.22
2022-10-28T06:54:30.039Z,101611.34
2022-10-28T06:57:32.659Z,101599.69
2022-10-28T07:00:35.614Z,101594.34
2022-10-28T07:03:38.134Z,101597.94
2022-10-28T07:06:41.083Z,101603.31
2022-10-28T07:09:45.084Z,101613.22
2022-10-28T07:12:47.908Z,101611.41
2022-10-28T07:15:54.673Z,101618.56
2022-10-28T07:18:57.507Z,101638.41
2022-10-28T07:22:00.168Z,101647.37
2022-10-28T07:25:03.069Z,101635.72
2022-10-28T07:28:05.671Z,101624.97
2022-10-28T07:31:08.669Z,101629.53
2022-10-28T07:34:11.207Z,101627.75
2022-10-28T07:37:14.081Z,101622.34
2022-10-28T07:40:16.748Z,101624.16
2022-10-28T07:43:19.594Z,101637.69
2022-10-28T07:46:22.105Z,101638.59
2022-10-28T07:49:25.189Z,101642.19
2022-10-28T07:52:28.036Z,101632.28
2022-10-28T07:55:30.804Z,101638.59
2022-10-28T07:58:33.454Z,101638.56
2022-10-28T08:01:36.512Z,101630.47
2022-10-28T08:04:40.511Z,101626.03
2022-10-28T08:07:43.327Z,101622.41
2022-10-28T08:10:46.215Z,101616.13
2022-10-28T08:13:48.755Z,101616.13
2022-10-28T08:16:51.635Z,101613.41
2022-10-28T08:19:54.155Z,101625.12
2022-10-28T08:22:59.515Z,101619.72
2022-10-28T08:26:03.412Z,101614.34
2022-10-28T08:29:07.046Z,101621.53
2022-10-28T08:32:09.693Z,101621.53
2022-10-28T08:35:12.518Z,101635.06
2022-10-28T08:38:15.361Z,101633.22
2022-10-28T08:41:27.274Z,101622.47
2022-10-28T08:44:41.791Z,101618.84
2022-10-28T08:47:44.590Z,101620.66
2022-10-28T08:50:50.697Z,101624.25
2022-10-28T08:53:57.070Z,101627.84
2022-10-28T08:57:01.665Z,101628.75
2022-10-28T09:00:09.801Z,101629.69
2022-10-28T09:03:17.418Z,101637.72
2022-10-28T09:06:20.677Z,101641.41
2022-10-28T09:09:23.602Z,101637.75
2022-10-28T09:12:55.935Z,101632.38
2022-10-28T09:16:16.421Z,101631.44
2022-10-28T09:19:50.853Z,101636.91
2022-10-28T09:23:04.043Z,101633.28
2022-10-28T09:26:18.583Z,101636.03
2022-10-28T09:29:44.367Z,101632.50
2022-10-28T09:33:16.564Z,101638.81
2022-10-28T09:36:24.192Z,101627.91
2022-10-28T09:39:36.648Z,101622.59
2022-10-28T09:42:42.647Z,101636.06
2022-10-28T09:45:47.596Z,101625.28
2022-10-28T09:48:51.837Z,101615.41
2022-10-28T09:52:16.359Z,101615.38
2022-10-28T09:55:20.811Z,101615.31
2022-10-28T09:58:24.135Z,101628.00
2022-10-28T10:01:31.242Z,101616.28
2022-10-28T10:04:35.809Z,101632.47
2022-10-28T10:07:41.752Z,101632.50
2022-10-28T10:11:01.123Z,101634.31
2022-10-28T10:14:07.778Z,101640.59
2022-10-28T10:17:16.930Z,101645.09
2022-10-28T10:20:21.110Z,101642.41
2022-10-28T10:23:30.070Z,101642.41
2022-10-28T10:26:33.110Z,101649.63
2022-10-28T10:29:36.473Z,101651.44
2022-10-28T10:32:39.124Z,101652.34
2022-10-28T10:35:41.985Z,101621.72
2022-10-28T10:38:50.750Z,101649.63
2022-10-28T10:41:56.646Z,101647.81
2022-10-28T10:45:17.530Z,101638.81
2022-10-28T10:48:20.451Z,101634.31
2022-10-28T10:51:27.397Z,101600.09
2022-10-28T10:54:32.267Z,101629.81
2022-10-28T10:57:35.015Z,101636.09
2022-10-28T11:00:39.071Z,101624.41
2022-10-28T11:03:50.061Z,101633.41
2022-10-28T11:06:57.191Z,101640.59
2022-10-28T11:10:00.194Z,101624.41
2022-10-28T11:13:24.832Z,101619.00
2022-10-28T11:16:27.650Z,101615.41
2022-10-28T11:19:31.687Z,101615.41
2022-10-28T11:22:43.483Z,101608.22
2022-10-28T11:25:52.918Z,101605.50
2022-10-28T11:28:55.454Z,101602.75
2022-10-28T11:32:16.832Z,101591.03
2022-10-28T11:35:47.092Z,101594.62
2022-10-28T11:39:15.195Z,101567.62
2022-10-28T11:42:21.228Z,101569.41
2022-10-28T11:45:35.682Z,101577.50
2022-10-28T11:48:46.594Z,101570.28
2022-10-28T11:52:05.874Z,101566.78
2022-10-28T11:55:21.458Z,101573.84
2022-10-28T11:58:46.039Z,101583.78
2022-10-28T12:02:18.250Z,101583.78
2022-10-28T12:05:44.031Z,101573.84
2022-10-28T12:08:46.371Z,101568.47
2022-10-28T12:12:17.770Z,101565.78
2022-10-28T12:15:45.346Z,101564.88
2022-10-28T12:18:58.306Z,101564.00
2022-10-28T12:22:19.514Z,101564.00
2022-10-28T12:25:28.949Z,101566.78
2022-10-28T12:28:41.118Z,101559.56
2022-10-28T12:31:48.233Z,101561.31
2022-10-28T12:35:01.230Z,101555.87
2022-10-28T12:38:09.064Z,101547.78
2022-10-28T12:41:30.631Z,101545.03
2022-10-28T12:44:33.618Z,101548.59
2022-10-28T12:47:53.333Z,101552.19
2022-10-28T12:51:33.333Z,101549.44
2022-10-28T12:54:53.672Z,101542.28
2022-10-28T12:58:09.872Z,101543.16
2022-10-28T13:01:17.410Z,101544.88
2022-10-28T13:04:20.406Z,101552.09
2022-10-28T13:07:26.710Z,101549.38
2022-10-28T13:10:50.147Z,101541.25
2022-10-28T13:14:14.867Z,101531.38
2022-10-28T13:17:32.073Z,101544.12
2022-10-28T13:21:06.155Z,101544.97
2022-10-28T13:24:22.653Z,101522.47
2022-10-28T13:27:25.526Z,101528.69
2022-10-28T13:30:30.772Z,101526.97
2022-10-28T13:33:36.138Z,101526.09
2022-10-28T13:36:42.829Z,101526.97
2022-10-28T13:39:46.799Z,101539.56
2022-10-28T13:42:50.225Z,101533.31
2022-10-28T13:45:54.725Z,101535.13
2022-10-28T13:49:22.754Z,101539.63
2022-10-28T13:52:25.187Z,101528.84
2022-10-28T13:55:42.758Z,101530.66
2022-10-28T13:59:05.554Z,101542.37
2022-10-28T14:02:35.037Z,101537.88
2022-10-28T14:05:38.322Z,101538.78
2022-10-28T14:08:43.883Z,101537.00
2022-10-28T14:11:46.606Z,101526.19
2022-10-28T14:14:52.758Z,101533.41
2022-10-28T14:18:37.369Z,101537.94
2022-10-28T14:21:56.491Z,101532.53
2022-10-28T14:25:04.043Z,101536.13
2022-10-28T14:28:31.367Z,101536.13
2022-10-28T14:31:38.441Z,101534.34
2022-10-28T14:34:42.147Z,101527.12
2022-10-28T14:37:50.709Z,101529.84
2022-10-28T14:41:18.168Z,101526.22
2022-10-28T14:44:35.780Z,101532.53
2022-10-28T14:48:00.189Z,101531.66
2022-10-28T14:51:03.205Z,101534.34
2022-10-28T14:54:10.137Z,101529.84
2022-10-28T14:57:12.924Z,101527.16
2022-10-28T15:00:18.916Z,101527.16
2022-10-28T15:03:21.787Z,101521.75
2022-10-28T15:06:40.767Z,101517.25
2022-10-28T15:09:44.812Z,101523.56
2022-10-28T15:12:51.364Z,101521.78
2022-10-28T15:15:57.366Z,101524.47
2022-10-28T15:19:06.451Z,101521.78
2022-10-28T15:22:14.945Z,101519.06
2022-10-28T15:25:20.291Z,101508.25
2022-10-28T15:28:23.074Z,101515.47
2022-10-28T15:31:25.625Z,101506.47
2022-10-28T15:34:29.781Z,101518.19
2022-10-28T15:37:36.336Z,101517.31
2022-10-28T15:40:39.121Z,101518.19
2022-10-28T15:43:41.574Z,101516.41
2022-10-28T15:46:49.219Z,101504.69
2022-10-28T15:50:14.969Z,101507.41
2022-10-28T15:53:40.271Z,101511.91
2022-10-28T15:56:54.697Z,101509.19
2022-10-28T16:00:28.795Z,101511.91
2022-10-28T16:03:46.275Z,101503.81
2022-10-28T16:06:52.702Z,101510.09
2022-10-28T16:09:56.100Z,101502.91
2022-10-28T16:12:58.546Z,101507.41
2022-10-28T16:16:04.726Z,101503.81
2022-10-28T16:19:09.150Z,101511.91
2022-10-28T16:22:13.430Z,101509.19
2022-10-28T16:25:20.885Z,101503.81
2022-10-28T16:28:26.111Z,101500.19
2022-10-28T16:31:29.573Z,101498.41
2022-10-28T16:34:32.376Z,101501.09
2022-10-28T16:37:35.070Z,101508.31
2022-10-28T16:40:50.948Z,101505.59
2022-10-28T16:43:55.936Z,101515.50
2022-10-28T16:46:58.753Z,101516.41
2022-10-28T16:50:01.262Z,101517.31
2022-10-28T16:53:04.034Z,101513.69
2022-10-28T16:56:12.526Z,101511.91
2022-10-28T16:59:16.426Z,101520.91
2022-10-28T17:02:28.667Z,101521.81
2022-10-28T17:05:32.025Z,101513.69
2022-10-28T17:09:01.282Z,101515.50
2022-10-28T17:11:57.293Z,101521.81
2022-10-28T17:14:59.739Z,101524.50
2022-10-28T17:18:02.580Z,101526.31
2022-10-28T17:21:05.211Z,101528.09
2022-10-28T17:24:08.279Z,101525.41
2022-10-28T17:27:10.782Z,101511.91
2022-10-28T17:30:13.785Z,101520.00
2022-10-28T17:33:16.288Z,101521.81
2022-10-28T17:36:19.043Z,101514.59
2022-10-28T17:39:25.859Z,101508.31
2022-10-28T17:42:29.071Z,101513.69
2022-10-28T17:45:31.690Z,101511.00
2022-10-28T17:48:34.802Z,101520.91
2022-10-28T17:51:38.269Z,101520.91
2022-10-28T17:54:41.419Z,101518.19
2022-10-28T17:57:45.862Z,101524.50
2022-10-28T18:00:48.569Z,101534.41
2022-10-28T18:03:51.500Z,101531.69
2022-10-28T18:06:55.684Z,101529.00
2022-10-28T18:09:58.822Z,101530.81
2022-10-28T18:13:01.513Z,101529.00
2022-10-28T18:16:25.414Z,101533.50
2022-10-28T18:19:32.685Z,101537.09
2022-10-28T18:22:35.689Z,101520.91
2022-10-28T18:25:38.315Z,101520.00
2022-10-28T18:28:42.755Z,101521.81
2022-10-28T18:31:45.497Z,101514.59
2022-10-28T18:34:48.586Z,101513.69
2022-10-28T18:37:51.322Z,101508.31
2022-10-28T18:40:54.619Z,101510.09
2022-10-28T18:43:59.524Z,101517.31
2022-10-28T18:47:02.490Z,101500.19
2022-10-28T18:50:05.547Z,101505.59
2022-10-28T18:53:08.320Z,101498.41
2022-10-28T18:56:13.121Z,101496.59
2022-10-28T18:59:16.238Z,101502.00
2022-10-28T19:02:19.054Z,101504.69
2022-10-28T19:05:22.255Z,101504.69
2022-10-28T19:08:24.925Z,101499.31
2022-10-28T19:11:32.393Z,101503.81
2022-10-28T19:14:35.016Z,101508.31
2022-10-28T19:17:38.239Z,101502.91
2022-10-28T19:20:40.886Z,101502.91
2022-10-28T19:23:43.778Z,101503.81
2022-10-28T19:26:46.290Z,101495.69
2022-10-28T19:29:49.348Z,101508.31
2022-10-28T19:32:52.210Z,101509.19
2022-10-28T19:36:00.656Z,101517.31
2022-10-28T19:39:03.735Z,101522.69
2022-10-28T19:42:06.514Z,101516.41
2022-10-28T19:45:09.656Z,101511.00
2022-10-28T19:48:12.581Z,101509.19
2022-10-28T19:51:20.203Z,101509.19
2022-10-28T19:54:23.013Z,101502.00
2022-10-28T19:57:25.605Z,101505.59
2022-10-28T20:00:28.519Z,101520.00
2022-10-28T20:03:34.517Z,101515.50
2022-10-28T20:06:39.531Z,101511.91
2022-10-28T20:09:42.311Z,101509.19
2022-10-28T20:12:44.959Z,101516.41
2022-10-28T20:15:47.843Z,101516.41
2022-10-28T20:18:50.741Z,101506.50
2022-10-28T20:21:53.462Z,101511.91
2022-10-28T20:24:56.184Z,101507.41
2022-10-28T20:27:59.217Z,101510.09
2022-10-28T20:31:03.988Z,101510.09
2022-10-28T20:34:07.413Z,101515.50
2022-10-28T20:37:09.867Z,101503.81
2022-10-28T20:40:12.579Z,101505.59
2022-10-28T20:43:16.334Z,101502.00
2022-10-28T20:46:20.260Z,101496.59
2022-10-28T20:49:22.902Z,101502.91
2022-10-28T20:52:25.669Z,101504.69
2022-10-28T20:55:28.214Z,101501.09
2022-10-28T20:58:33.239Z,101497.50
2022-10-28T21:01:40.130Z,101493.00
2022-10-28T21:04:43.129Z,101492.09
2022-10-28T21:07:45.605Z,101495.66
2022-10-28T21:10:48.322Z,101496.59
2022-10-28T21:13:52.532Z,101498.41
2022-10-28T21:16:55.235Z,101489.38
2022-10-28T21:19:57.821Z,101487.56
2022-10-28T21:23:00.672Z,101487.56
2022-10-28T21:26:05.302Z,101482.16
2022-10-28T21:29:08.666Z,101492.06
2022-10-28T21:32:11.210Z,101495.66
2022-10-28T21:35:13.967Z,101509.16
2022-10-28T21:38:18.084Z,101503.75
2022-10-28T21:41:21.453Z,101500.16
2022-10-28T21:44:23.912Z,101494.75
2022-10-28T21:47:27.258Z,101500.16
2022-10-28T21:50:29.852Z,101497.47
2022-10-28T21:53:34.312Z,101506.47
2022-10-28T21:56:36.814Z,101495.66
2022-10-28T21:59:39.631Z,101494.75
2022-10-28T22:02:42.328Z,101482.16
2022-10-28T22:05:51.352Z,101485.75
2022-10-28T22:08:55.232Z,101492.97
2022-10-28T22:11:57.934Z,101490.25
2022-10-28T22:15:00.382Z,101492.97
2022-10-28T22:18:03.124Z,101485.75
2022-10-28T22:21:18.966Z,101486.66
2022-10-28T22:24:21.725Z,101478.56
2022-10-28T22:27:24.158Z,101474.94
2022-10-28T22:30:27.012Z,101470.44
2022-10-28T22:33:29.619Z,101474.94
2022-10-28T22:36:32.513Z,101486.66
2022-10-28T22:39:35.003Z,101486.66
2022-10-28T22:42:37.737Z,101489.34
2022-10-28T22:45:40.230Z,101489.34
2022-10-28T22:48:43.689Z,101492.97
2022-10-28T22:51:46.136Z,101489.34
2022-10-28T22:54:48.916Z,101481.25
2022-10-28T22:57:54.190Z,101472.25
2022-10-28T23:01:16.434Z,101483.06
2022-10-28T23:04:19.198Z,101466.84
2022-10-28T23:07:21.918Z,101465.03
2022-10-28T23:10:24.411Z,101461.44
2022-10-28T23:13:27.318Z,101453.34
2022-10-28T23:16:29.865Z,101468.66
2022-10-28T23:19:33.044Z,101475.84
2022-10-28T23:22:35.557Z,101461.44
2022-10-28T23:25:38.315Z,101469.53
2022-10-28T23:28:41.393Z,101459.63
2022-10-28T23:31:44.203Z,101446.13
2022-10-28T23:34:46.624Z,101444.34
2022-10-28T23:37:49.455Z,101450.63
2022-10-28T23:40:56.583Z,101449.75
2022-10-28T23:44:00.600Z,101446.13
2022-10-28T23:47:03.081Z,101451.53
2022-10-28T23:50:06.032Z,101448.84
2022-10-28T23:53:08.450Z,101447.03
2022-10-28T23:56:11.178Z,101444.34
2022-10-28T23:59:13.862Z,101445.22
